createdAt,value
2018-05-31T00:01:22.948Z,51.81
2018-05-31T00:03:49.288Z,53.40
2018-05-31T00:06:21.618Z,53.67
2018-05-31T00:08:48.017Z,56.36
2018-05-31T00:11:15.234Z,59.81
2018-05-31T00:13:41.677Z,61.05
2018-05-31T00:16:08.091Z,64.33
2018-05-31T00:18:35.242Z,64.16
2018-05-31T00:21:01.615Z,67.62
2018-05-31T00:23:28.736Z,66.06
2018-05-31T00:25:55.076Z,66.33
2018-05-31T00:28:21.533Z,67.67
2018-05-31T00:30:48.628Z,68.13
2018-05-31T00:33:15.127Z,66.82
2018-05-31T00:35:41.475Z,68.39
2018-05-31T00:38:07.905Z,70.96
2018-05-31T00:40:34.347Z,71.76
2018-05-31T00:43:01.038Z,71.36
2018-05-31T00:45:28.144Z,68.76
2018-05-31T00:47:54.537Z,67.74
2018-05-31T00:50:20.886Z,67.91
2018-05-31T00:52:47.211Z,68.42
2018-05-31T00:55:13.646Z,67.97
2018-05-31T00:57:40.030Z,68.53
2018-05-31T01:00:06.406Z,69.11
2018-05-31T01:02:32.750Z,69.30
2018-05-31T01:04:59.115Z,69.64
2018-05-31T01:07:25.442Z,69.53
2018-05-31T01:09:51.757Z,69.69
2018-05-31T01:12:18.101Z,69.86
2018-05-31T01:14:44.527Z,69.61
2018-05-31T01:17:10.847Z,70.29
2018-05-31T01:19:37.175Z,71.16
2018-05-31T01:22:03.547Z,70.97
2018-05-31T01:24:30.623Z,72.08
2018-05-31T01:26:56.963Z,72.52
2018-05-31T01:29:23.342Z,71.53
2018-05-31T01:31:49.664Z,70.75
2018-05-31T01:34:15.980Z,71.40
2018-05-31T01:36:42.336Z,71.57
2018-05-31T01:39:16.689Z,72.62
2018-05-31T01:41:43.142Z,73.44
2018-05-31T01:44:09.462Z,74.04
2018-05-31T01:46:35.874Z,74.27
2018-05-31T01:49:02.219Z,74.33
2018-05-31T01:51:28.596Z,74.83
2018-05-31T01:53:54.901Z,75.20
2018-05-31T01:56:21.333Z,74.42
2018-05-31T01:58:48.118Z,74.49
2018-05-31T02:01:15.234Z,74.34
2018-05-31T02:03:41.657Z,74.65
2018-05-31T02:06:08.029Z,75.79
2018-05-31T02:08:35.191Z,75.67
2018-05-31T02:11:01.606Z,75.81
2018-05-31T02:13:28.731Z,75.91
2018-05-31T02:15:55.063Z,76.63
2018-05-31T02:18:21.429Z,77.80
2018-05-31T02:20:48.313Z,79.04
2018-05-31T02:23:14.650Z,79.87
2018-05-31T02:25:40.962Z,78.68
2018-05-31T02:28:07.275Z,79.25
2018-05-31T02:30:33.613Z,79.69
2018-05-31T02:32:59.974Z,80.92
2018-05-31T02:35:26.299Z,81.59
2018-05-31T02:37:52.650Z,81.97
2018-05-31T02:40:19.983Z,82.12
2018-05-31T02:42:46.315Z,81.69
2018-05-31T02:45:12.663Z,81.39
2018-05-31T02:47:39.736Z,82.13
2018-05-31T02:50:06.093Z,83.00
2018-05-31T02:52:32.466Z,83.76
2018-05-31T02:54:58.804Z,84.18
2018-05-31T02:57:25.894Z,84.06
2018-05-31T02:59:52.462Z,83.61
2018-05-31T03:02:18.795Z,82.53
2018-05-31T03:04:45.227Z,82.15
2018-05-31T03:07:11.530Z,82.65
2018-05-31T03:09:37.865Z,82.99
2018-05-31T03:12:04.237Z,84.18
2018-05-31T03:14:31.295Z,84.50
2018-05-31T03:16:58.458Z,84.56
2018-05-31T03:19:24.799Z,84.42
2018-05-31T03:21:51.122Z,84.86
2018-05-31T03:24:17.437Z,84.94
2018-05-31T03:26:43.800Z,84.90
2018-05-31T03:29:10.138Z,83.96
2018-05-31T03:31:36.453Z,83.93
2018-05-31T03:34:02.798Z,82.75
2018-05-31T03:36:29.131Z,82.50
2018-05-31T03:38:55.618Z,81.95
2018-05-31T03:41:22.722Z,82.33
2018-05-31T03:43:49.069Z,83.30
2018-05-31T03:46:15.374Z,83.47
2018-05-31T03:48:41.710Z,83.25
2018-05-31T03:51:08.032Z,82.37
2018-05-31T03:53:34.439Z,82.35
2018-05-31T03:56:00.795Z,81.90
2018-05-31T03:58:27.155Z,81.93
2018-05-31T04:00:53.461Z,81.99
2018-05-31T04:03:19.789Z,81.51
2018-05-31T04:05:46.102Z,80.90
2018-05-31T04:08:12.445Z,80.26
2018-05-31T04:10:38.754Z,79.36
2018-05-31T04:13:06.031Z,78.77
2018-05-31T04:15:32.392Z,78.12
2018-05-31T04:17:58.968Z,78.14
2018-05-31T04:20:25.297Z,78.18
2018-05-31T04:22:51.628Z,78.68
2018-05-31T04:25:17.957Z,79.07
2018-05-31T04:27:44.322Z,77.00
2018-05-31T04:30:10.674Z,76.47
2018-05-31T04:32:37.769Z,76.66
2018-05-31T04:35:04.162Z,76.77
2018-05-31T04:37:31.247Z,77.16
2018-05-31T04:39:57.606Z,77.36
2018-05-31T04:42:23.951Z,77.22
2018-05-31T04:44:50.542Z,77.80
2018-05-31T04:47:16.895Z,77.95
2018-05-31T04:49:43.193Z,78.47
2018-05-31T04:52:09.506Z,79.20
2018-05-31T04:54:35.840Z,80.15
2018-05-31T04:57:02.223Z,77.80
2018-05-31T04:59:28.590Z,78.08
2018-05-31T05:01:55.081Z,79.58
2018-05-31T05:04:21.439Z,80.36
2018-05-31T05:06:48.570Z,81.00
2018-05-31T05:09:14.886Z,80.44
2018-05-31T05:11:41.221Z,79.57
2018-05-31T05:14:07.592Z,79.65
2018-05-31T05:16:34.650Z,79.71
2018-05-31T05:19:01.052Z,80.52
2018-05-31T05:21:28.117Z,79.50
2018-05-31T05:23:54.497Z,78.55
2018-05-31T05:26:20.826Z,78.03
2018-05-31T05:28:47.906Z,77.36
2018-05-31T05:31:14.961Z,76.98
2018-05-31T05:33:42.041Z,75.43
2018-05-31T05:36:08.372Z,75.53
2018-05-31T05:38:34.703Z,74.87
2018-05-31T05:41:01.017Z,72.63
2018-05-31T05:43:27.390Z,72.46
2018-05-31T05:45:53.681Z,69.50
2018-05-31T05:48:20.039Z,68.23
2018-05-31T05:50:46.387Z,67.53
2018-05-31T05:53:12.682Z,63.84
2018-05-31T05:55:39.069Z,59.93
2018-05-31T05:58:06.009Z,56.35
2018-05-31T06:00:32.348Z,54.70
2018-05-31T06:02:59.437Z,55.50
2018-05-31T06:05:26.268Z,58.01
2018-05-31T06:07:52.643Z,53.76
2018-05-31T06:10:19.112Z,53.48
2018-05-31T06:12:46.193Z,53.90
2018-05-31T06:15:12.650Z,52.15
2018-05-31T06:17:39.054Z,51.20
2018-05-31T06:20:06.417Z,49.40
2018-05-31T06:22:32.818Z,53.44
2018-05-31T06:24:59.477Z,46.97
2018-05-31T06:27:25.817Z,51.03
2018-05-31T06:29:52.235Z,54.01
2018-05-31T06:32:18.606Z,50.71
2018-05-31T06:34:44.952Z,48.02
2018-05-31T06:37:12.173Z,45.77
2018-05-31T06:39:38.880Z,45.66
2018-05-31T06:42:05.428Z,44.47
2018-05-31T06:44:31.858Z,44.42
2018-05-31T06:46:58.410Z,42.62
2018-05-31T06:49:24.865Z,41.40
2018-05-31T06:51:51.215Z,43.54
2018-05-31T06:54:18.428Z,41.40
2018-05-31T06:56:44.734Z,43.70
2018-05-31T06:59:11.443Z,45.43
2018-05-31T07:01:38.826Z,47.29
2018-05-31T07:04:05.166Z,44.49
2018-05-31T07:06:31.511Z,45.99
2018-05-31T07:08:57.835Z,43.76
2018-05-31T07:11:24.926Z,45.10
2018-05-31T07:13:52.006Z,46.23
2018-05-31T07:16:18.325Z,44.48
2018-05-31T07:18:44.760Z,45.32
2018-05-31T07:21:11.612Z,47.73
2018-05-31T07:23:38.103Z,50.55
2018-05-31T07:26:04.440Z,50.16
2018-05-31T07:28:30.858Z,53.53
2018-05-31T07:30:57.251Z,55.52
2018-05-31T07:33:23.634Z,55.10
2018-05-31T07:35:50.730Z,57.73
2018-05-31T07:38:17.114Z,57.19
2018-05-31T07:40:44.210Z,60.80
2018-05-31T07:43:10.579Z,61.25
2018-05-31T07:45:37.723Z,62.26
2018-05-31T07:48:04.099Z,61.82
2018-05-31T07:50:30.432Z,62.14
2018-05-31T07:52:56.783Z,61.31
2018-05-31T07:55:23.141Z,61.31
2018-05-31T07:57:49.534Z,61.54
2018-05-31T08:00:16.419Z,62.99
2018-05-31T08:02:42.832Z,59.52
2018-05-31T08:05:09.194Z,59.04
2018-05-31T08:07:36.274Z,58.95
2018-05-31T08:10:02.707Z,59.82
2018-05-31T08:12:29.010Z,59.81
2018-05-31T08:14:56.117Z,60.12
2018-05-31T08:17:22.496Z,60.00
2018-05-31T08:19:48.844Z,60.25
2018-05-31T08:22:15.250Z,56.97
2018-05-31T08:24:42.294Z,60.27
2018-05-31T08:27:08.707Z,59.82
2018-05-31T08:29:35.066Z,58.26
2018-05-31T08:32:06.724Z,57.02
2018-05-31T08:34:33.077Z,55.57
2018-05-31T08:36:59.451Z,55.93
2018-05-31T08:39:26.617Z,55.91
2018-05-31T08:41:53.680Z,56.71
2018-05-31T08:44:20.116Z,57.00
2018-05-31T08:46:46.462Z,55.93
2018-05-31T08:49:12.816Z,55.11
2018-05-31T08:51:39.142Z,53.80
2018-05-31T08:54:05.562Z,53.16
2018-05-31T08:56:31.983Z,53.30
2018-05-31T08:58:58.316Z,54.40
2018-05-31T09:01:24.666Z,54.59
2018-05-31T09:03:51.056Z,54.04
2018-05-31T09:06:17.405Z,54.65
2018-05-31T09:08:43.790Z,53.89
2018-05-31T09:11:10.966Z,54.15
2018-05-31T09:13:37.374Z,54.43
2018-05-31T09:16:03.826Z,53.64
2018-05-31T09:18:30.164Z,56.23
2018-05-31T09:20:56.609Z,53.85
2018-05-31T09:23:22.926Z,54.50
2018-05-31T09:25:49.360Z,51.98
2018-05-31T09:28:15.791Z,54.26
2018-05-31T09:30:42.252Z,53.38
2018-05-31T09:33:08.791Z,53.62
2018-05-31T09:35:35.170Z,52.71
2018-05-31T09:38:02.302Z,52.40
2018-05-31T09:40:29.393Z,52.31
2018-05-31T09:42:55.826Z,52.89
2018-05-31T09:45:22.739Z,51.80
2018-05-31T09:47:49.222Z,51.47
2018-05-31T09:50:15.582Z,51.07
2018-05-31T09:52:42.830Z,51.17
2018-05-31T09:55:09.926Z,51.31
2018-05-31T09:57:36.368Z,50.85
2018-05-31T10:00:02.850Z,51.07
2018-05-31T10:02:29.965Z,50.22
2018-05-31T10:04:56.331Z,50.18
2018-05-31T10:07:22.715Z,50.05
2018-05-31T10:09:49.034Z,50.05
2018-05-31T10:12:15.375Z,49.88
2018-05-31T10:14:41.800Z,50.20
2018-05-31T10:17:08.169Z,50.36
2018-05-31T10:19:34.557Z,50.58
2018-05-31T10:22:00.995Z,50.67
2018-05-31T10:24:27.418Z,49.88
2018-05-31T10:26:53.843Z,50.14
2018-05-31T10:29:20.293Z,51.32
2018-05-31T10:31:46.677Z,51.29
2018-05-31T10:34:13.780Z,49.70
2018-05-31T10:36:40.197Z,50.90
2018-05-31T10:39:06.627Z,51.03
2018-05-31T10:41:33.011Z,50.52
2018-05-31T10:44:00.125Z,48.34
2018-05-31T10:46:26.459Z,48.38
2018-05-31T10:48:52.963Z,49.78
2018-05-31T10:51:19.367Z,49.75
2018-05-31T10:53:46.500Z,50.72
2018-05-31T10:56:12.931Z,51.36
2018-05-31T10:58:39.301Z,52.21
2018-05-31T11:01:05.725Z,52.71
2018-05-31T11:03:32.186Z,53.33
2018-05-31T11:05:58.819Z,51.36
2018-05-31T11:08:25.156Z,50.48
2018-05-31T11:10:52.402Z,50.82
2018-05-31T11:13:18.775Z,50.06
2018-05-31T11:15:45.144Z,48.50
2018-05-31T11:18:11.516Z,48.63
2018-05-31T11:20:37.963Z,45.93
2018-05-31T11:23:04.370Z,47.12
2018-05-31T11:25:31.358Z,46.77
2018-05-31T11:27:58.507Z,47.25
2018-05-31T11:30:25.657Z,46.74
2018-05-31T11:32:52.834Z,47.05
2018-05-31T11:35:19.180Z,46.27
2018-05-31T11:37:45.536Z,45.88
2018-05-31T11:40:11.867Z,45.36
2018-05-31T11:42:38.235Z,44.82
2018-05-31T11:45:04.694Z,45.50
2018-05-31T11:47:31.151Z,45.22
2018-05-31T11:49:57.544Z,44.70
2018-05-31T11:52:23.971Z,43.68
2018-05-31T11:54:50.323Z,42.88
2018-05-31T11:57:16.656Z,42.89
2018-05-31T11:59:43.088Z,43.32
2018-05-31T12:02:09.549Z,43.60
2018-05-31T12:04:36.007Z,44.11
2018-05-31T12:07:03.198Z,42.85
2018-05-31T12:09:29.519Z,44.28
2018-05-31T12:11:55.913Z,42.75
2018-05-31T12:14:23.056Z,42.16
2018-05-31T12:16:49.405Z,42.97
2018-05-31T12:19:15.784Z,41.43
2018-05-31T12:21:42.144Z,42.56
2018-05-31T12:24:09.658Z,42.53
2018-05-31T12:26:36.600Z,43.27
2018-05-31T12:29:02.975Z,44.48
2018-05-31T12:31:29.286Z,43.97
2018-05-31T12:33:55.655Z,43.22
2018-05-31T12:36:22.779Z,42.47
2018-05-31T12:38:49.121Z,43.37
2018-05-31T12:41:16.258Z,43.78
2018-05-31T12:43:42.659Z,44.71
2018-05-31T12:46:09.030Z,45.68
2018-05-31T12:48:35.404Z,44.14
2018-05-31T12:51:01.803Z,44.84
2018-05-31T12:53:28.907Z,44.64
2018-05-31T12:55:55.267Z,44.89
2018-05-31T12:58:21.596Z,44.28
2018-05-31T13:00:47.971Z,44.40
2018-05-31T13:03:14.373Z,44.37
2018-05-31T13:05:40.838Z,45.02
2018-05-31T13:08:07.279Z,43.72
2018-05-31T13:10:33.911Z,43.11
2018-05-31T13:13:00.316Z,43.32
2018-05-31T13:15:26.679Z,43.17
2018-05-31T13:17:53.085Z,43.03
2018-05-31T13:20:19.419Z,42.38
2018-05-31T13:22:45.772Z,42.39
2018-05-31T13:25:12.338Z,41.87
2018-05-31T13:27:38.780Z,42.11
2018-05-31T13:30:05.886Z,42.57
2018-05-31T13:32:32.220Z,41.91
2018-05-31T13:34:58.590Z,41.42
2018-05-31T13:37:25.753Z,41.66
2018-05-31T13:39:52.846Z,42.09
2018-05-31T13:42:19.169Z,41.47
2018-05-31T13:44:45.521Z,41.01
2018-05-31T13:47:12.049Z,40.22
2018-05-31T13:49:38.417Z,40.83
2018-05-31T13:52:05.596Z,40.39
2018-05-31T13:54:31.950Z,40.20
2018-05-31T13:56:58.337Z,40.68
2018-05-31T13:59:25.478Z,40.79
2018-05-31T14:01:52.553Z,39.77
2018-05-31T14:04:18.923Z,40.04
2018-05-31T14:06:45.382Z,40.59
2018-05-31T14:09:12.467Z,40.27
2018-05-31T14:11:38.886Z,40.45
2018-05-31T14:14:05.289Z,40.39
2018-05-31T14:16:32.445Z,41.18
2018-05-31T14:18:58.868Z,41.05
2018-05-31T14:21:25.314Z,40.36
2018-05-31T14:23:52.414Z,40.47
2018-05-31T14:26:18.780Z,40.92
2018-05-31T14:28:46.317Z,40.58
2018-05-31T14:31:12.691Z,41.57
2018-05-31T14:33:39.080Z,41.53
2018-05-31T14:36:05.468Z,42.45
2018-05-31T14:38:31.868Z,43.23
2018-05-31T14:40:59.096Z,43.57
2018-05-31T14:43:25.548Z,42.61
2018-05-31T14:45:52.631Z,42.24
2018-05-31T14:48:19.022Z,43.55
2018-05-31T14:50:46.601Z,43.68
2018-05-31T14:53:12.975Z,44.70
2018-05-31T14:55:39.344Z,44.59
2018-05-31T14:58:06.405Z,45.59
2018-05-31T15:00:32.764Z,45.21
2018-05-31T15:02:59.199Z,44.55
2018-05-31T15:05:28.436Z,45.97
2018-05-31T15:07:54.803Z,45.84
2018-05-31T15:10:21.146Z,46.26
2018-05-31T15:12:47.735Z,47.62
2018-05-31T15:15:14.981Z,46.60
2018-05-31T15:17:41.381Z,47.38
2018-05-31T15:20:07.803Z,47.73
2018-05-31T15:22:34.108Z,48.52
2018-05-31T15:25:01.271Z,49.77
2018-05-31T15:27:27.622Z,49.05
2018-05-31T15:29:54.558Z,49.61
2018-05-31T15:32:20.959Z,49.02
2018-05-31T15:34:48.066Z,48.99
2018-05-31T15:37:14.525Z,47.47
2018-05-31T15:39:40.877Z,47.83
2018-05-31T15:42:07.333Z,47.29
2018-05-31T15:44:34.379Z,47.85
2018-05-31T15:47:00.801Z,47.51
2018-05-31T15:49:27.243Z,46.93
2018-05-31T15:51:53.708Z,47.53
2018-05-31T15:54:20.949Z,47.26
2018-05-31T15:56:47.548Z,46.56
2018-05-31T15:59:13.943Z,46.79
2018-05-31T16:01:41.136Z,47.32
2018-05-31T16:04:07.467Z,48.86
2018-05-31T16:06:33.853Z,48.90
2018-05-31T16:09:00.999Z,48.45
2018-05-31T16:11:27.356Z,47.65
2018-05-31T16:13:54.488Z,47.65
2018-05-31T16:16:21.573Z,47.65
2018-05-31T16:18:48.006Z,45.86
2018-05-31T16:21:14.407Z,45.65
2018-05-31T16:23:40.837Z,45.83
2018-05-31T16:26:08.085Z,46.70
2018-05-31T16:28:34.521Z,45.46
2018-05-31T16:31:00.887Z,46.27
2018-05-31T16:33:27.249Z,45.28
2018-05-31T16:35:53.808Z,45.03
2018-05-31T16:38:20.275Z,45.11
2018-05-31T16:40:46.641Z,44.36
2018-05-31T16:43:13.015Z,44.29
2018-05-31T16:45:39.347Z,44.69
2018-05-31T16:48:06.521Z,44.21
2018-05-31T16:50:32.860Z,44.79
2018-05-31T16:52:59.318Z,44.54
2018-05-31T16:55:25.916Z,44.40
2018-05-31T16:57:52.314Z,45.21
2018-05-31T17:00:19.433Z,46.29
2018-05-31T17:02:45.834Z,47.10
2018-05-31T17:05:12.284Z,47.49
2018-05-31T17:07:38.646Z,46.76
2018-05-31T17:10:05.101Z,46.76
2018-05-31T17:12:31.679Z,46.72
2018-05-31T17:14:58.296Z,47.06
2018-05-31T17:17:24.679Z,47.37
2018-05-31T17:19:51.150Z,47.85
2018-05-31T17:22:17.522Z,48.16
2018-05-31T17:24:43.923Z,47.88
2018-05-31T17:27:10.324Z,46.80
2018-05-31T17:29:36.683Z,46.31
2018-05-31T17:32:03.033Z,47.29
2018-05-31T17:34:29.385Z,49.05
2018-05-31T17:36:55.788Z,48.62
2018-05-31T17:39:22.165Z,47.84
2018-05-31T17:41:49.449Z,47.93
2018-05-31T17:44:15.799Z,48.34
2018-05-31T17:46:42.156Z,47.57
2018-05-31T17:49:08.571Z,47.17
2018-05-31T17:51:35.120Z,47.28
2018-05-31T17:54:01.576Z,47.01
2018-05-31T17:56:28.674Z,46.75
2018-05-31T17:58:55.055Z,46.99
2018-05-31T18:01:22.161Z,46.68
2018-05-31T18:03:48.545Z,47.30
2018-05-31T18:06:15.768Z,47.74
2018-05-31T18:08:42.231Z,47.75
2018-05-31T18:11:08.599Z,47.91
2018-05-31T18:13:35.019Z,48.44
2018-05-31T18:16:01.911Z,48.24
2018-05-31T18:18:28.316Z,49.45
2018-05-31T18:20:54.786Z,49.50
2018-05-31T18:23:21.915Z,50.09
2018-05-31T18:25:48.278Z,50.14
2018-05-31T18:28:14.722Z,50.28
2018-05-31T18:30:41.059Z,50.77
2018-05-31T18:33:07.554Z,50.58
2018-05-31T18:35:34.629Z,50.69
2018-05-31T18:38:01.121Z,51.66
2018-05-31T18:40:27.743Z,51.96
2018-05-31T18:42:54.175Z,52.31
2018-05-31T18:45:20.594Z,51.95
2018-05-31T18:47:47.069Z,52.59
2018-05-31T18:50:13.579Z,53.24
2018-05-31T18:52:40.054Z,52.61
2018-05-31T18:55:07.361Z,52.56
2018-05-31T18:57:33.710Z,53.56
2018-05-31T19:00:00.056Z,53.98
2018-05-31T19:02:27.193Z,53.90
2018-05-31T19:04:54.395Z,54.77
2018-05-31T19:07:20.879Z,55.26
2018-05-31T19:09:48.091Z,54.94
2018-05-31T19:12:14.588Z,55.18
2018-05-31T19:14:40.956Z,56.01
2018-05-31T19:17:07.998Z,55.99
2018-05-31T19:22:34.319Z,57.66
2018-05-31T19:25:07.541Z,57.48
2018-05-31T19:27:33.892Z,58.99
2018-05-31T19:30:06.338Z,59.12
2018-05-31T19:32:32.735Z,60.15
2018-05-31T19:34:59.156Z,60.02
2018-05-31T19:37:25.663Z,60.09
2018-05-31T19:39:52.053Z,60.68
2018-05-31T19:42:24.541Z,61.07
2018-05-31T19:44:51.020Z,62.02
2018-05-31T19:47:18.495Z,62.86
2018-05-31T19:49:45.036Z,63.59
2018-05-31T19:52:17.779Z,63.81
2018-05-31T19:54:44.189Z,64.21
2018-05-31T19:57:11.214Z,64.85
2018-05-31T19:59:44.369Z,63.71
2018-05-31T20:02:17.693Z,63.98
2018-05-31T20:04:44.130Z,63.65
2018-05-31T20:07:11.078Z,63.56
2018-05-31T20:09:37.528Z,63.19
2018-05-31T20:12:04.158Z,63.42
2018-05-31T20:14:30.791Z,63.01
2018-05-31T20:16:57.134Z,63.77
2018-05-31T20:19:23.691Z,64.33
2018-05-31T20:21:50.058Z,64.97
2018-05-31T20:24:16.403Z,64.76
2018-05-31T20:26:43.006Z,65.15
2018-05-31T20:29:09.427Z,65.08
2018-05-31T20:31:35.907Z,65.01
2018-05-31T20:34:02.313Z,64.14
2018-05-31T20:36:28.780Z,63.92
2018-05-31T20:38:55.197Z,64.18
2018-05-31T20:41:21.826Z,63.48
2018-05-31T20:43:48.271Z,64.07
2018-05-31T20:46:15.264Z,64.67
2018-05-31T20:48:41.693Z,65.55
2018-05-31T20:51:08.917Z,65.90
2018-05-31T20:53:35.239Z,66.37
2018-05-31T20:56:01.627Z,65.13
2018-05-31T20:58:27.954Z,64.61
2018-05-31T21:00:54.434Z,65.53
2018-05-31T21:03:20.773Z,65.27
2018-05-31T21:05:47.152Z,66.26
2018-05-31T21:08:13.508Z,66.70
2018-05-31T21:10:39.933Z,66.76
2018-05-31T21:13:06.347Z,67.41
2018-05-31T21:15:32.731Z,66.91
2018-05-31T21:17:59.182Z,66.93
2018-05-31T21:20:25.526Z,67.61
2018-05-31T21:22:52.753Z,67.69
2018-05-31T21:25:19.176Z,68.46
2018-05-31T21:27:45.516Z,69.66
2018-05-31T21:30:12.007Z,70.34
2018-05-31T21:32:38.347Z,70.37
2018-05-31T21:35:04.702Z,69.50
2018-05-31T21:37:31.051Z,70.30
2018-05-31T21:39:58.226Z,69.51
2018-05-31T21:42:24.627Z,68.46
2018-05-31T21:44:51.078Z,68.73
2018-05-31T21:47:18.875Z,68.20
2018-05-31T21:49:45.184Z,68.29
2018-05-31T21:52:11.595Z,68.20
2018-05-31T21:54:38.712Z,68.78
2018-05-31T21:57:05.091Z,69.65
2018-05-31T21:59:32.175Z,70.09
2018-05-31T22:01:59.520Z,70.70
2018-05-31T22:04:26.020Z,71.47
2018-05-31T22:06:53.172Z,71.74
2018-05-31T22:09:20.858Z,71.43
2018-05-31T22:11:47.205Z,71.57
2018-05-31T22:14:13.571Z,71.18
2018-05-31T22:16:39.976Z,71.83
2018-05-31T22:19:06.313Z,71.10
2018-05-31T22:21:32.777Z,72.16
2018-05-31T22:23:59.150Z,72.67
2018-05-31T22:26:25.501Z,72.30
2018-05-31T22:28:52.139Z,74.67
2018-05-31T22:31:18.502Z,74.96
2018-05-31T22:33:45.761Z,75.12
2018-05-31T22:36:12.085Z,74.50
2018-05-31T22:38:39.378Z,74.99
2018-05-31T22:41:05.767Z,75.57
2018-05-31T22:43:32.141Z,74.45
2018-05-31T22:45:58.534Z,74.02
2018-05-31T22:48:24.830Z,73.53
2018-05-31T22:50:51.158Z,73.73
2018-05-31T22:53:17.514Z,72.89
2018-05-31T22:55:43.923Z,73.78
2018-05-31T22:58:10.313Z,77.82
2018-05-31T23:00:36.864Z,80.60
2018-05-31T23:03:03.938Z,89.47
2018-05-31T23:05:30.296Z,91.27
2018-05-31T23:07:56.739Z,93.60
2018-05-31T23:10:23.146Z,95.07
2018-05-31T23:12:50.238Z,94.99
2018-05-31T23:15:16.656Z,95.45
2018-05-31T23:17:42.990Z,98.22
2018-05-31T23:20:09.429Z,100.00
2018-05-31T23:22:35.775Z,100.00
2018-05-31T23:25:02.191Z,100.00
2018-05-31T23:27:28.584Z,100.00
2018-05-31T23:29:55.045Z,100.00
2018-05-31T23:32:21.439Z,100.00
2018-05-31T23:34:47.822Z,100.00
2018-05-31T23:37:14.155Z,100.00
2018-05-31T23:39:40.500Z,100.00
2018-05-31T23:42:06.818Z,100.00
2018-05-31T23:44:33.196Z,100.00
2018-05-31T23:46:59.638Z,100.00
2018-05-31T23:49:25.979Z,100.00
2018-05-31T23:51:52.334Z,100.00
2018-05-31T23:54:18.681Z,100.00
2018-05-31T23:56:45.127Z,100.00
2018-05-31T23:59:11.449Z,100.00
